Аэропорт: Гостомель. Киев

ICAO: UKKM

METAR:
2018/11/19 10:00
UKKM 191000Z 03002MPS 9999 FEW027 M00/M06 Q1026 R33/32//55 NOSIG
METAR:
2018/11/19 06:33
TAF TAF UKKM 190530Z 1906/2006 04004MPS 6000 BKN010 TXM00/1912Z TNM05/2005Z 
      TEMPO 1906/1908 2000 BR BKN005 
      BECMG 1908/1909 04004G09MPS 9999 OVC020